sensor_id;sensor_type;location;lat;lon;timestamp;P1;durP1;ratioP1;P2;durP2;ratioP2
9948;SDS011;5013;51.840;8.276;2023-03-14T00:00:03;5.13;;;2.63;;
9948;SDS011;5013;51.840;8.276;2023-03-14T00:02:37;2.83;;;1.90;;
9948;SDS011;5013;51.840;8.276;2023-03-14T00:05:02;3.00;;;1.87;;
9948;SDS011;5013;51.840;8.276;2023-03-14T00:07:31;4.73;;;2.20;;
9948;SDS011;5013;51.840;8.276;2023-03-14T00:10:00;4.83;;;1.80;;
9948;SDS011;5013;51.840;8.276;2023-03-14T00:12:27;3.97;;;1.70;;
9948;SDS011;5013;51.840;8.276;2023-03-14T00:14:52;5.50;;;1.73;;
9948;SDS011;5013;51.840;8.276;2023-03-14T00:17:18;1.83;;;1.73;;
9948;SDS011;5013;51.840;8.276;2023-03-14T00:19:43;3.13;;;1.80;;
9948;SDS011;5013;51.840;8.276;2023-03-14T00:22:09;2.13;;;1.57;;
9948;SDS011;5013;51.840;8.276;2023-03-14T00:24:35;5.47;;;2.10;;
9948;SDS011;5013;51.840;8.276;2023-03-14T00:27:00;6.37;;;2.30;;
9948;SDS011;5013;51.840;8.276;2023-03-14T00:29:26;4.27;;;2.00;;
9948;SDS011;5013;51.840;8.276;2023-03-14T00:31:51;5.13;;;1.90;;
9948;SDS011;5013;51.840;8.276;2023-03-14T00:34:18;6.77;;;2.27;;
9948;SDS011;5013;51.840;8.276;2023-03-14T00:36:44;4.33;;;2.07;;
9948;SDS011;5013;51.840;8.276;2023-03-14T00:39:10;4.50;;;2.13;;
9948;SDS011;5013;51.840;8.276;2023-03-14T00:41:35;5.40;;;1.60;;
9948;SDS011;5013;51.840;8.276;2023-03-14T00:44:01;9.87;;;2.50;;
9948;SDS011;5013;51.840;8.276;2023-03-14T00:46:27;5.03;;;1.90;;
9948;SDS011;5013;51.840;8.276;2023-03-14T00:48:52;3.67;;;2.00;;
9948;SDS011;5013;51.840;8.276;2023-03-14T00:51:18;5.50;;;1.90;;
9948;SDS011;5013;51.840;8.276;2023-03-14T00:53:44;6.40;;;2.03;;
9948;SDS011;5013;51.840;8.276;2023-03-14T00:56:10;3.23;;;1.77;;
9948;SDS011;5013;51.840;8.276;2023-03-14T00:58:37;5.07;;;2.03;;
9948;SDS011;5013;51.840;8.276;2023-03-14T01:01:06;3.37;;;1.90;;
9948;SDS011;5013;51.840;8.276;2023-03-14T01:03:38;5.67;;;2.00;;
9948;SDS011;5013;51.840;8.276;2023-03-14T01:06:16;3.60;;;1.80;;
9948;SDS011;5013;51.840;8.276;2023-03-14T01:08:44;5.17;;;2.00;;
9948;SDS011;5013;51.840;8.276;2023-03-14T01:11:12;6.30;;;2.77;;
9948;SDS011;5013;51.840;8.276;2023-03-14T01:13:40;5.77;;;2.37;;
9948;SDS011;5013;51.840;8.276;2023-03-14T01:16:06;4.07;;;2.30;;
9948;SDS011;5013;51.840;8.276;2023-03-14T01:18:33;6.00;;;2.20;;
9948;SDS011;5013;51.840;8.276;2023-03-14T01:21:13;4.93;;;1.93;;
9948;SDS011;5013;51.840;8.276;2023-03-14T01:23:42;5.53;;;2.00;;
9948;SDS011;5013;51.840;8.276;2023-03-14T01:26:10;8.47;;;2.37;;
9948;SDS011;5013;51.840;8.276;2023-03-14T01:28:36;5.30;;;1.83;;
9948;SDS011;5013;51.840;8.276;2023-03-14T01:31:03;4.50;;;1.90;;
9948;SDS011;5013;51.840;8.276;2023-03-14T01:33:30;3.10;;;1.63;;
9948;SDS011;5013;51.840;8.276;2023-03-14T01:35:55;5.23;;;1.53;;
9948;SDS011;5013;51.840;8.276;2023-03-14T01:38:21;4.43;;;2.00;;
9948;SDS011;5013;51.840;8.276;2023-03-14T01:40:47;5.03;;;1.70;;
9948;SDS011;5013;51.840;8.276;2023-03-14T01:43:14;4.60;;;1.73;;
9948;SDS011;5013;51.840;8.276;2023-03-14T01:51:13;3.30;;;1.70;;
9948;SDS011;5013;51.840;8.276;2023-03-14T01:53:46;4.83;;;1.90;;
9948;SDS011;5013;51.840;8.276;2023-03-14T01:56:13;6.27;;;2.27;;
9948;SDS011;5013;51.840;8.276;2023-03-14T01:58:42;4.20;;;1.67;;
9948;SDS011;5013;51.840;8.276;2023-03-14T02:01:12;7.90;;;2.00;;
9948;SDS011;5013;51.840;8.276;2023-03-14T02:03:44;5.37;;;1.70;;
9948;SDS011;5013;51.840;8.276;2023-03-14T02:06:15;3.97;;;1.70;;
9948;SDS011;5013;51.840;8.276;2023-03-14T02:08:44;3.30;;;1.60;;
9948;SDS011;5013;51.840;8.276;2023-03-14T02:11:13;6.47;;;1.90;;
9948;SDS011;5013;51.840;8.276;2023-03-14T02:13:39;4.23;;;1.90;;
9948;SDS011;5013;51.840;8.276;2023-03-14T02:16:05;5.60;;;1.80;;
9948;SDS011;5013;51.840;8.276;2023-03-14T02:18:31;9.47;;;2.10;;
9948;SDS011;5013;51.840;8.276;2023-03-14T02:21:09;4.33;;;1.83;;
9948;SDS011;5013;51.840;8.276;2023-03-14T02:23:46;3.27;;;1.50;;
9948;SDS011;5013;51.840;8.276;2023-03-14T02:26:34;4.03;;;1.67;;
9948;SDS011;5013;51.840;8.276;2023-03-14T02:29:05;2.23;;;0.90;;
9948;SDS011;5013;51.840;8.276;2023-03-14T02:31:31;1.83;;;0.83;;
9948;SDS011;5013;51.840;8.276;2023-03-14T02:33:57;2.60;;;1.00;;
9948;SDS011;5013;51.840;8.276;2023-03-14T02:36:24;2.63;;;1.10;;
9948;SDS011;5013;51.840;8.276;2023-03-14T02:39:07;4.43;;;1.47;;
9948;SDS011;5013;51.840;8.276;2023-03-14T02:41:44;1.77;;;1.00;;
9948;SDS011;5013;51.840;8.276;2023-03-14T02:44:11;3.60;;;1.20;;
9948;SDS011;5013;51.840;8.276;2023-03-14T02:46:37;3.57;;;1.40;;
9948;SDS011;5013;51.840;8.276;2023-03-14T02:49:03;3.77;;;1.10;;
9948;SDS011;5013;51.840;8.276;2023-03-14T02:51:33;5.17;;;1.33;;
9948;SDS011;5013;51.840;8.276;2023-03-14T02:53:59;5.30;;;1.30;;
9948;SDS011;5013;51.840;8.276;2023-03-14T02:56:25;2.10;;;1.43;;
9948;SDS011;5013;51.840;8.276;2023-03-14T02:58:51;4.23;;;1.27;;
9948;SDS011;5013;51.840;8.276;2023-03-14T03:01:16;7.33;;;1.53;;
9948;SDS011;5013;51.840;8.276;2023-03-14T03:03:42;5.40;;;1.33;;
9948;SDS011;5013;51.840;8.276;2023-03-14T03:06:07;2.17;;;1.20;;
9948;SDS011;5013;51.840;8.276;2023-03-14T03:08:33;3.87;;;1.20;;
9948;SDS011;5013;51.840;8.276;2023-03-14T03:10:59;2.10;;;1.30;;
9948;SDS011;5013;51.840;8.276;2023-03-14T03:13:25;2.60;;;1.10;;
9948;SDS011;5013;51.840;8.276;2023-03-14T03:15:51;1.97;;;1.10;;
9948;SDS011;5013;51.840;8.276;2023-03-14T03:18:17;3.03;;;1.03;;
9948;SDS011;5013;51.840;8.276;2023-03-14T03:20:43;1.63;;;0.90;;
9948;SDS011;5013;51.840;8.276;2023-03-14T03:23:08;3.90;;;1.30;;
9948;SDS011;5013;51.840;8.276;2023-03-14T03:25:34;3.20;;;0.80;;
9948;SDS011;5013;51.840;8.276;2023-03-14T03:28:00;2.93;;;1.37;;
9948;SDS011;5013;51.840;8.276;2023-03-14T03:30:27;2.40;;;0.90;;
9948;SDS011;5013;51.840;8.276;2023-03-14T03:32:52;2.90;;;1.03;;
9948;SDS011;5013;51.840;8.276;2023-03-14T03:35:18;1.90;;;1.10;;
9948;SDS011;5013;51.840;8.276;2023-03-14T03:37:43;5.63;;;1.40;;
9948;SDS011;5013;51.840;8.276;2023-03-14T03:40:09;9.60;;;1.43;;
9948;SDS011;5013;51.840;8.276;2023-03-14T03:42:35;3.83;;;1.40;;
9948;SDS011;5013;51.840;8.276;2023-03-14T03:45:01;4.53;;;1.50;;
9948;SDS011;5013;51.840;8.276;2023-03-14T03:47:29;3.80;;;1.50;;
9948;SDS011;5013;51.840;8.276;2023-03-14T03:49:55;7.87;;;1.67;;
9948;SDS011;5013;51.840;8.276;2023-03-14T03:52:21;7.83;;;1.57;;
9948;SDS011;5013;51.840;8.276;2023-03-14T03:54:46;4.97;;;1.77;;
9948;SDS011;5013;51.840;8.276;2023-03-14T03:57:12;7.60;;;1.60;;
9948;SDS011;5013;51.840;8.276;2023-03-14T03:59:38;5.43;;;1.63;;
9948;SDS011;5013;51.840;8.276;2023-03-14T04:02:05;4.90;;;1.40;;
9948;SDS011;5013;51.840;8.276;2023-03-14T04:04:31;8.40;;;1.80;;
9948;SDS011;5013;51.840;8.276;2023-03-14T04:06:56;9.00;;;1.83;;
9948;SDS011;5013;51.840;8.276;2023-03-14T04:09:22;7.83;;;1.67;;
9948;SDS011;5013;51.840;8.276;2023-03-14T04:11:47;5.43;;;1.93;;
9948;SDS011;5013;51.840;8.276;2023-03-14T04:14:13;6.93;;;1.83;;
9948;SDS011;5013;51.840;8.276;2023-03-14T04:16:39;4.90;;;1.40;;
9948;SDS011;5013;51.840;8.276;2023-03-14T04:19:04;3.90;;;1.60;;
9948;SDS011;5013;51.840;8.276;2023-03-14T04:21:30;3.97;;;1.40;;
9948;SDS011;5013;51.840;8.276;2023-03-14T04:23:55;8.53;;;1.93;;
9948;SDS011;5013;51.840;8.276;2023-03-14T04:26:21;7.47;;;2.20;;
9948;SDS011;5013;51.840;8.276;2023-03-14T04:28:46;3.87;;;1.50;;
9948;SDS011;5013;51.840;8.276;2023-03-14T04:31:13;8.67;;;1.83;;
9948;SDS011;5013;51.840;8.276;2023-03-14T04:33:44;8.53;;;1.80;;
9948;SDS011;5013;51.840;8.276;2023-03-14T04:36:10;7.03;;;2.10;;
9948;SDS011;5013;51.840;8.276;2023-03-14T04:38:36;7.70;;;2.03;;
9948;SDS011;5013;51.840;8.276;2023-03-14T04:41:02;4.73;;;1.70;;
9948;SDS011;5013;51.840;8.276;2023-03-14T04:43:28;7.70;;;1.60;;
9948;SDS011;5013;51.840;8.276;2023-03-14T04:45:54;6.77;;;1.80;;
9948;SDS011;5013;51.840;8.276;2023-03-14T04:48:20;5.63;;;1.67;;
9948;SDS011;5013;51.840;8.276;2023-03-14T04:50:47;8.10;;;1.87;;
9948;SDS011;5013;51.840;8.276;2023-03-14T04:53:13;9.77;;;2.50;;
9948;SDS011;5013;51.840;8.276;2023-03-14T04:55:39;4.30;;;1.67;;
9948;SDS011;5013;51.840;8.276;2023-03-14T04:58:05;8.63;;;1.70;;
9948;SDS011;5013;51.840;8.276;2023-03-14T05:00:31;6.33;;;1.90;;
9948;SDS011;5013;51.840;8.276;2023-03-14T05:02:57;4.07;;;1.63;;
9948;SDS011;5013;51.840;8.276;2023-03-14T05:05:22;5.13;;;2.03;;
9948;SDS011;5013;51.840;8.276;2023-03-14T05:07:48;5.20;;;1.50;;
9948;SDS011;5013;51.840;8.276;2023-03-14T05:10:14;4.63;;;1.50;;
9948;SDS011;5013;51.840;8.276;2023-03-14T05:12:40;6.20;;;1.40;;
9948;SDS011;5013;51.840;8.276;2023-03-14T05:15:06;8.10;;;2.00;;
9948;SDS011;5013;51.840;8.276;2023-03-14T05:17:32;6.30;;;1.90;;
9948;SDS011;5013;51.840;8.276;2023-03-14T05:19:58;8.43;;;1.90;;
9948;SDS011;5013;51.840;8.276;2023-03-14T05:22:24;5.97;;;1.87;;
9948;SDS011;5013;51.840;8.276;2023-03-14T05:24:50;4.47;;;1.70;;
9948;SDS011;5013;51.840;8.276;2023-03-14T05:27:16;4.03;;;1.70;;
9948;SDS011;5013;51.840;8.276;2023-03-14T05:29:41;5.07;;;1.80;;
9948;SDS011;5013;51.840;8.276;2023-03-14T05:32:07;4.23;;;1.30;;
9948;SDS011;5013;51.840;8.276;2023-03-14T05:34:33;5.67;;;1.70;;
9948;SDS011;5013;51.840;8.276;2023-03-14T05:36:58;3.67;;;1.07;;
9948;SDS011;5013;51.840;8.276;2023-03-14T05:39:24;9.37;;;1.70;;
9948;SDS011;5013;51.840;8.276;2023-03-14T05:41:50;1.27;;;1.17;;
9948;SDS011;5013;51.840;8.276;2023-03-14T05:44:16;2.83;;;0.83;;
9948;SDS011;5013;51.840;8.276;2023-03-14T05:46:41;2.33;;;0.80;;
9948;SDS011;5013;51.840;8.276;2023-03-14T05:49:07;2.93;;;1.00;;
9948;SDS011;5013;51.840;8.276;2023-03-14T05:51:32;2.73;;;0.90;;
9948;SDS011;5013;51.840;8.276;2023-03-14T05:53:58;2.30;;;1.13;;
9948;SDS011;5013;51.840;8.276;2023-03-14T05:56:23;5.53;;;0.90;;
9948;SDS011;5013;51.840;8.276;2023-03-14T05:58:49;5.33;;;1.33;;
9948;SDS011;5013;51.840;8.276;2023-03-14T06:01:15;4.70;;;1.20;;
9948;SDS011;5013;51.840;8.276;2023-03-14T06:03:40;4.13;;;1.07;;
9948;SDS011;5013;51.840;8.276;2023-03-14T06:06:06;2.70;;;0.80;;
9948;SDS011;5013;51.840;8.276;2023-03-14T06:08:32;3.43;;;1.27;;
9948;SDS011;5013;51.840;8.276;2023-03-14T06:10:57;4.43;;;1.00;;
9948;SDS011;5013;51.840;8.276;2023-03-14T06:13:23;1.97;;;0.93;;
9948;SDS011;5013;51.840;8.276;2023-03-14T06:15:49;2.43;;;0.80;;
9948;SDS011;5013;51.840;8.276;2023-03-14T06:18:14;1.43;;;0.73;;
9948;SDS011;5013;51.840;8.276;2023-03-14T06:20:40;1.87;;;0.90;;
9948;SDS011;5013;51.840;8.276;2023-03-14T06:23:06;6.33;;;1.10;;
9948;SDS011;5013;51.840;8.276;2023-03-14T06:25:32;2.47;;;0.90;;
9948;SDS011;5013;51.840;8.276;2023-03-14T06:27:59;2.90;;;0.90;;
9948;SDS011;5013;51.840;8.276;2023-03-14T06:30:24;3.10;;;0.97;;
9948;SDS011;5013;51.840;8.276;2023-03-14T06:32:50;2.43;;;1.20;;
9948;SDS011;5013;51.840;8.276;2023-03-14T06:35:16;3.50;;;1.47;;
9948;SDS011;5013;51.840;8.276;2023-03-14T06:37:41;4.27;;;1.07;;
9948;SDS011;5013;51.840;8.276;2023-03-14T06:40:08;2.53;;;1.00;;
9948;SDS011;5013;51.840;8.276;2023-03-14T06:42:34;2.17;;;1.00;;
9948;SDS011;5013;51.840;8.276;2023-03-14T06:45:00;1.27;;;1.20;;
9948;SDS011;5013;51.840;8.276;2023-03-14T06:47:26;1.20;;;0.70;;
9948;SDS011;5013;51.840;8.276;2023-03-14T06:49:51;3.73;;;1.00;;
9948;SDS011;5013;51.840;8.276;2023-03-14T06:52:17;2.00;;;1.00;;
9948;SDS011;5013;51.840;8.276;2023-03-14T06:54:42;2.17;;;0.90;;
9948;SDS011;5013;51.840;8.276;2023-03-14T06:57:08;0.60;;;0.50;;
9948;SDS011;5013;51.840;8.276;2023-03-14T06:59:33;4.20;;;0.87;;
9948;SDS011;5013;51.840;8.276;2023-03-14T07:01:59;1.03;;;0.77;;
9948;SDS011;5013;51.840;8.276;2023-03-14T07:04:24;1.77;;;0.97;;
9948;SDS011;5013;51.840;8.276;2023-03-14T07:06:50;8.30;;;1.23;;
9948;SDS011;5013;51.840;8.276;2023-03-14T07:09:16;2.83;;;0.80;;
9948;SDS011;5013;51.840;8.276;2023-03-14T07:11:44;3.40;;;1.23;;
9948;SDS011;5013;51.840;8.276;2023-03-14T07:14:10;1.40;;;1.20;;
9948;SDS011;5013;51.840;8.276;2023-03-14T07:16:35;1.90;;;0.70;;
9948;SDS011;5013;51.840;8.276;2023-03-14T07:19:02;1.93;;;1.10;;
9948;SDS011;5013;51.840;8.276;2023-03-14T07:21:27;2.77;;;1.00;;
9948;SDS011;5013;51.840;8.276;2023-03-14T07:23:53;4.20;;;1.30;;
9948;SDS011;5013;51.840;8.276;2023-03-14T07:26:19;2.73;;;1.40;;
9948;SDS011;5013;51.840;8.276;2023-03-14T07:28:45;1.83;;;1.10;;
9948;SDS011;5013;51.840;8.276;2023-03-14T07:31:10;1.70;;;0.90;;
9948;SDS011;5013;51.840;8.276;2023-03-14T07:33:36;4.47;;;1.30;;
9948;SDS011;5013;51.840;8.276;2023-03-14T07:36:02;3.97;;;1.60;;
9948;SDS011;5013;51.840;8.276;2023-03-14T07:38:28;4.07;;;1.67;;
9948;SDS011;5013;51.840;8.276;2023-03-14T07:40:58;3.70;;;1.10;;
9948;SDS011;5013;51.840;8.276;2023-03-14T07:43:27;4.30;;;1.07;;
9948;SDS011;5013;51.840;8.276;2023-03-14T07:45:53;3.30;;;1.40;;
9948;SDS011;5013;51.840;8.276;2023-03-14T07:48:19;3.77;;;1.30;;
9948;SDS011;5013;51.840;8.276;2023-03-14T07:50:48;3.43;;;1.30;;
9948;SDS011;5013;51.840;8.276;2023-03-14T07:53:14;2.53;;;1.30;;
9948;SDS011;5013;51.840;8.276;2023-03-14T07:55:39;4.80;;;1.47;;
9948;SDS011;5013;51.840;8.276;2023-03-14T07:58:05;4.77;;;1.30;;
9948;SDS011;5013;51.840;8.276;2023-03-14T08:00:31;3.87;;;1.20;;
9948;SDS011;5013;51.840;8.276;2023-03-14T08:02:57;3.47;;;1.10;;
9948;SDS011;5013;51.840;8.276;2023-03-14T08:05:23;2.83;;;1.27;;
9948;SDS011;5013;51.840;8.276;2023-03-14T08:07:49;3.23;;;1.20;;
9948;SDS011;5013;51.840;8.276;2023-03-14T08:10:14;1.50;;;1.13;;
9948;SDS011;5013;51.840;8.276;2023-03-14T08:12:47;0.90;;;0.90;;
9948;SDS011;5013;51.840;8.276;2023-03-14T08:15:18;1.30;;;0.93;;
9948;SDS011;5013;51.840;8.276;2023-03-14T08:17:44;3.60;;;0.83;;
9948;SDS011;5013;51.840;8.276;2023-03-14T08:20:10;0.90;;;0.90;;
9948;SDS011;5013;51.840;8.276;2023-03-14T08:22:36;1.40;;;0.80;;
9948;SDS011;5013;51.840;8.276;2023-03-14T08:25:02;1.60;;;1.13;;
9948;SDS011;5013;51.840;8.276;2023-03-14T08:27:28;2.57;;;0.80;;
9948;SDS011;5013;51.840;8.276;2023-03-14T08:29:54;1.30;;;0.97;;
9948;SDS011;5013;51.840;8.276;2023-03-14T08:32:19;1.73;;;1.00;;
9948;SDS011;5013;51.840;8.276;2023-03-14T08:34:45;0.97;;;0.97;;
9948;SDS011;5013;51.840;8.276;2023-03-14T08:37:11;1.00;;;0.93;;
9948;SDS011;5013;51.840;8.276;2023-03-14T08:39:37;1.60;;;1.40;;
9948;SDS011;5013;51.840;8.276;2023-03-14T08:42:02;1.00;;;1.00;;
9948;SDS011;5013;51.840;8.276;2023-03-14T08:44:28;0.90;;;0.90;;
9948;SDS011;5013;51.840;8.276;2023-03-14T08:46:54;1.30;;;1.20;;
9948;SDS011;5013;51.840;8.276;2023-03-14T08:49:20;0.80;;;0.80;;
9948;SDS011;5013;51.840;8.276;2023-03-14T08:51:45;1.10;;;1.10;;
9948;SDS011;5013;51.840;8.276;2023-03-14T08:54:11;1.13;;;1.13;;
9948;SDS011;5013;51.840;8.276;2023-03-14T08:56:36;1.10;;;1.10;;
9948;SDS011;5013;51.840;8.276;2023-03-14T08:59:05;1.17;;;1.17;;
9948;SDS011;5013;51.840;8.276;2023-03-14T09:01:31;1.50;;;1.40;;
9948;SDS011;5013;51.840;8.276;2023-03-14T09:03:57;1.00;;;1.00;;
9948;SDS011;5013;51.840;8.276;2023-03-14T09:06:22;2.57;;;1.00;;
9948;SDS011;5013;51.840;8.276;2023-03-14T09:08:48;0.93;;;0.93;;
9948;SDS011;5013;51.840;8.276;2023-03-14T09:11:14;1.40;;;1.20;;
9948;SDS011;5013;51.840;8.276;2023-03-14T09:13:40;2.00;;;0.97;;
9948;SDS011;5013;51.840;8.276;2023-03-14T09:16:06;0.90;;;0.90;;
9948;SDS011;5013;51.840;8.276;2023-03-14T09:18:32;2.53;;;1.10;;
9948;SDS011;5013;51.840;8.276;2023-03-14T09:20:58;1.00;;;1.00;;
9948;SDS011;5013;51.840;8.276;2023-03-14T09:23:23;1.10;;;1.10;;
9948;SDS011;5013;51.840;8.276;2023-03-14T09:25:53;0.80;;;0.80;;
9948;SDS011;5013;51.840;8.276;2023-03-14T09:28:20;0.80;;;0.80;;
9948;SDS011;5013;51.840;8.276;2023-03-14T09:30:46;2.13;;;1.00;;
9948;SDS011;5013;51.840;8.276;2023-03-14T09:33:12;0.90;;;0.90;;
9948;SDS011;5013;51.840;8.276;2023-03-14T09:35:37;1.23;;;1.10;;
9948;SDS011;5013;51.840;8.276;2023-03-14T09:38:03;1.70;;;1.17;;
9948;SDS011;5013;51.840;8.276;2023-03-14T09:40:31;1.43;;;1.20;;
9948;SDS011;5013;51.840;8.276;2023-03-14T09:43:00;2.33;;;1.37;;
9948;SDS011;5013;51.840;8.276;2023-03-14T09:47:53;1.30;;;1.20;;
9948;SDS011;5013;51.840;8.276;2023-03-14T09:50:20;1.20;;;1.20;;
9948;SDS011;5013;51.840;8.276;2023-03-14T09:52:47;1.70;;;1.20;;
9948;SDS011;5013;51.840;8.276;2023-03-14T09:55:18;3.20;;;1.20;;
9948;SDS011;5013;51.840;8.276;2023-03-14T09:57:46;1.20;;;1.20;;
9948;SDS011;5013;51.840;8.276;2023-03-14T10:00:23;1.23;;;1.20;;
9948;SDS011;5013;51.840;8.276;2023-03-14T10:02:56;1.23;;;1.23;;
9948;SDS011;5013;51.840;8.276;2023-03-14T10:05:32;1.50;;;1.50;;
9948;SDS011;5013;51.840;8.276;2023-03-14T10:07:57;1.60;;;1.60;;
9948;SDS011;5013;51.840;8.276;2023-03-14T10:10:25;2.00;;;2.00;;
9948;SDS011;5013;51.840;8.276;2023-03-14T10:15:48;3.40;;;3.20;;
9948;SDS011;5013;51.840;8.276;2023-03-14T10:18:20;3.40;;;3.20;;
9948;SDS011;5013;51.840;8.276;2023-03-14T10:20:49;3.50;;;3.20;;
9948;SDS011;5013;51.840;8.276;2023-03-14T10:23:27;3.80;;;3.50;;
9948;SDS011;5013;51.840;8.276;2023-03-14T10:26:00;4.07;;;3.60;;
9948;SDS011;5013;51.840;8.276;2023-03-14T10:28:33;5.70;;;3.73;;
9948;SDS011;5013;51.840;8.276;2023-03-14T10:31:19;3.23;;;3.03;;
9948;SDS011;5013;51.840;8.276;2023-03-14T10:33:57;6.60;;;3.70;;
9948;SDS011;5013;51.840;8.276;2023-03-14T10:36:28;2.73;;;2.60;;
9948;SDS011;5013;51.840;8.276;2023-03-14T10:39:15;1.30;;;1.20;;
9948;SDS011;5013;51.840;8.276;2023-03-14T10:41:54;2.23;;;1.20;;
9948;SDS011;5013;51.840;8.276;2023-03-14T10:44:28;1.43;;;1.33;;
9948;SDS011;5013;51.840;8.276;2023-03-14T10:47:03;1.43;;;1.33;;
9948;SDS011;5013;51.840;8.276;2023-03-14T10:49:34;2.27;;;2.07;;
9948;SDS011;5013;51.840;8.276;2023-03-14T10:52:13;1.13;;;1.10;;
9948;SDS011;5013;51.840;8.276;2023-03-14T10:54:48;1.27;;;1.10;;
9948;SDS011;5013;51.840;8.276;2023-03-14T10:57:24;1.77;;;1.67;;
9948;SDS011;5013;51.840;8.276;2023-03-14T10:59:50;2.30;;;1.60;;
9948;SDS011;5013;51.840;8.276;2023-03-14T11:02:31;2.30;;;1.60;;
9948;SDS011;5013;51.840;8.276;2023-03-14T11:05:28;2.00;;;1.23;;
9948;SDS011;5013;51.840;8.276;2023-03-14T11:09:07;0.80;;;0.80;;
9948;SDS011;5013;51.840;8.276;2023-03-14T11:11:25;0.80;;;0.80;;
9948;SDS011;5013;51.840;8.276;2023-03-14T11:16:56;1.40;;;1.30;;
9948;SDS011;5013;51.840;8.276;2023-03-14T11:19:29;1.47;;;1.37;;
9948;SDS011;5013;51.840;8.276;2023-03-14T11:27:46;1.23;;;1.10;;
9948;SDS011;5013;51.840;8.276;2023-03-14T11:33:17;1.00;;;0.90;;
9948;SDS011;5013;51.840;8.276;2023-03-14T11:36:08;2.20;;;1.47;;
9948;SDS011;5013;51.840;8.276;2023-03-14T11:41:09;0.50;;;0.50;;
9948;SDS011;5013;51.840;8.276;2023-03-14T11:43:46;0.97;;;0.50;;
9948;SDS011;5013;51.840;8.276;2023-03-14T11:46:17;2.20;;;0.90;;
9948;SDS011;5013;51.840;8.276;2023-03-14T11:48:50;1.13;;;0.87;;
9948;SDS011;5013;51.840;8.276;2023-03-14T11:51:45;0.83;;;0.83;;
9948;SDS011;5013;51.840;8.276;2023-03-14T11:54:17;1.90;;;0.60;;
9948;SDS011;5013;51.840;8.276;2023-03-14T11:56:53;1.83;;;0.50;;
9948;SDS011;5013;51.840;8.276;2023-03-14T11:59:24;0.70;;;0.70;;
9948;SDS011;5013;51.840;8.276;2023-03-14T12:02:01;2.23;;;0.90;;
9948;SDS011;5013;51.840;8.276;2023-03-14T12:04:51;4.07;;;1.00;;
9948;SDS011;5013;51.840;8.276;2023-03-14T12:07:49;1.57;;;1.00;;
9948;SDS011;5013;51.840;8.276;2023-03-14T12:10:25;3.17;;;1.10;;
9948;SDS011;5013;51.840;8.276;2023-03-14T12:12:52;2.40;;;1.13;;
9948;SDS011;5013;51.840;8.276;2023-03-14T12:15:18;1.63;;;1.00;;
9948;SDS011;5013;51.840;8.276;2023-03-14T12:17:46;4.43;;;1.30;;
9948;SDS011;5013;51.840;8.276;2023-03-14T12:20:18;4.10;;;1.67;;
9948;SDS011;5013;51.840;8.276;2023-03-14T12:25:21;10.80;;;1.73;;
9948;SDS011;5013;51.840;8.276;2023-03-14T12:30:31;8.67;;;1.67;;
9948;SDS011;5013;51.840;8.276;2023-03-14T12:35:36;4.97;;;1.77;;
9948;SDS011;5013;51.840;8.276;2023-03-14T12:38:04;9.87;;;2.10;;
9948;SDS011;5013;51.840;8.276;2023-03-14T12:40:41;7.53;;;1.57;;
9948;SDS011;5013;51.840;8.276;2023-03-14T12:43:32;7.80;;;1.80;;
9948;SDS011;5013;51.840;8.276;2023-03-14T12:46:14;9.23;;;2.00;;
9948;SDS011;5013;51.840;8.276;2023-03-14T12:49:04;7.73;;;1.87;;
9948;SDS011;5013;51.840;8.276;2023-03-14T12:51:34;7.40;;;1.60;;
9948;SDS011;5013;51.840;8.276;2023-03-14T12:56:51;6.07;;;2.10;;
9948;SDS011;5013;51.840;8.276;2023-03-14T12:59:30;8.40;;;1.90;;
9948;SDS011;5013;51.840;8.276;2023-03-14T13:01:59;6.30;;;2.00;;
9948;SDS011;5013;51.840;8.276;2023-03-14T13:04:27;10.30;;;1.87;;
9948;SDS011;5013;51.840;8.276;2023-03-14T13:06:58;6.97;;;2.10;;
9948;SDS011;5013;51.840;8.276;2023-03-14T13:12:02;7.33;;;2.50;;
9948;SDS011;5013;51.840;8.276;2023-03-14T13:14:34;10.57;;;2.30;;
9948;SDS011;5013;51.840;8.276;2023-03-14T13:17:00;13.80;;;2.67;;
9948;SDS011;5013;51.840;8.276;2023-03-14T13:19:27;7.00;;;2.00;;
9948;SDS011;5013;51.840;8.276;2023-03-14T13:21:56;5.17;;;1.93;;
9948;SDS011;5013;51.840;8.276;2023-03-14T13:24:27;5.73;;;2.13;;
9948;SDS011;5013;51.840;8.276;2023-03-14T13:26:53;12.60;;;2.07;;
9948;SDS011;5013;51.840;8.276;2023-03-14T13:29:21;13.17;;;2.33;;
9948;SDS011;5013;51.840;8.276;2023-03-14T13:31:56;11.03;;;2.33;;
9948;SDS011;5013;51.840;8.276;2023-03-14T13:34:30;8.17;;;2.67;;
9948;SDS011;5013;51.840;8.276;2023-03-14T13:36:58;12.33;;;3.00;;
9948;SDS011;5013;51.840;8.276;2023-03-14T13:39:25;17.30;;;3.07;;
9948;SDS011;5013;51.840;8.276;2023-03-14T13:41:53;13.63;;;3.20;;
9948;SDS011;5013;51.840;8.276;2023-03-14T13:44:33;14.17;;;3.27;;
9948;SDS011;5013;51.840;8.276;2023-03-14T13:47:00;15.90;;;2.73;;
9948;SDS011;5013;51.840;8.276;2023-03-14T13:49:27;13.07;;;3.40;;
9948;SDS011;5013;51.840;8.276;2023-03-14T13:51:57;18.73;;;4.13;;
9948;SDS011;5013;51.840;8.276;2023-03-14T13:54:23;16.77;;;3.50;;
9948;SDS011;5013;51.840;8.276;2023-03-14T13:57:09;19.83;;;3.53;;
9948;SDS011;5013;51.840;8.276;2023-03-14T13:59:35;28.70;;;3.63;;
9948;SDS011;5013;51.840;8.276;2023-03-14T14:02:13;17.93;;;3.53;;
9948;SDS011;5013;51.840;8.276;2023-03-14T14:04:39;21.80;;;3.87;;
9948;SDS011;5013;51.840;8.276;2023-03-14T14:07:06;15.57;;;3.00;;
9948;SDS011;5013;51.840;8.276;2023-03-14T14:09:41;24.00;;;3.53;;
9948;SDS011;5013;51.840;8.276;2023-03-14T14:12:13;21.53;;;3.80;;
9948;SDS011;5013;51.840;8.276;2023-03-14T14:14:46;20.70;;;4.10;;
9948;SDS011;5013;51.840;8.276;2023-03-14T14:17:21;22.13;;;4.23;;
9948;SDS011;5013;51.840;8.276;2023-03-14T14:19:51;20.83;;;4.03;;
9948;SDS011;5013;51.840;8.276;2023-03-14T14:22:17;16.37;;;4.07;;
9948;SDS011;5013;51.840;8.276;2023-03-14T14:24:44;13.97;;;3.03;;
9948;SDS011;5013;51.840;8.276;2023-03-14T14:27:15;19.90;;;3.53;;
9948;SDS011;5013;51.840;8.276;2023-03-14T14:29:43;20.00;;;3.47;;
9948;SDS011;5013;51.840;8.276;2023-03-14T14:32:20;14.33;;;3.97;;
9948;SDS011;5013;51.840;8.276;2023-03-14T14:34:47;22.47;;;3.70;;
9948;SDS011;5013;51.840;8.276;2023-03-14T14:39:46;17.10;;;3.23;;
9948;SDS011;5013;51.840;8.276;2023-03-14T14:42:15;26.23;;;5.30;;
9948;SDS011;5013;51.840;8.276;2023-03-14T14:44:43;16.27;;;3.10;;
9948;SDS011;5013;51.840;8.276;2023-03-14T14:47:13;13.83;;;2.67;;
9948;SDS011;5013;51.840;8.276;2023-03-14T14:49:40;18.10;;;3.40;;
9948;SDS011;5013;51.840;8.276;2023-03-14T14:52:16;14.87;;;3.73;;
9948;SDS011;5013;51.840;8.276;2023-03-14T14:54:47;16.10;;;3.50;;
9948;SDS011;5013;51.840;8.276;2023-03-14T14:57:31;10.13;;;2.80;;
9948;SDS011;5013;51.840;8.276;2023-03-14T15:00:03;15.73;;;3.27;;
9948;SDS011;5013;51.840;8.276;2023-03-14T15:02:35;10.67;;;3.03;;
9948;SDS011;5013;51.840;8.276;2023-03-14T15:05:29;11.47;;;2.97;;
9948;SDS011;5013;51.840;8.276;2023-03-14T15:07:56;15.53;;;2.80;;
9948;SDS011;5013;51.840;8.276;2023-03-14T15:10:23;6.70;;;2.27;;
9948;SDS011;5013;51.840;8.276;2023-03-14T15:12:50;10.73;;;2.60;;
9948;SDS011;5013;51.840;8.276;2023-03-14T15:15:16;18.77;;;2.90;;
9948;SDS011;5013;51.840;8.276;2023-03-14T15:17:42;16.27;;;3.37;;
9948;SDS011;5013;51.840;8.276;2023-03-14T15:20:12;11.07;;;2.87;;
9948;SDS011;5013;51.840;8.276;2023-03-14T15:22:40;11.23;;;2.53;;
9948;SDS011;5013;51.840;8.276;2023-03-14T15:25:06;11.93;;;2.50;;
9948;SDS011;5013;51.840;8.276;2023-03-14T15:27:33;9.37;;;2.37;;
9948;SDS011;5013;51.840;8.276;2023-03-14T15:29:59;11.67;;;2.40;;
9948;SDS011;5013;51.840;8.276;2023-03-14T15:32:25;8.93;;;2.70;;
9948;SDS011;5013;51.840;8.276;2023-03-14T15:34:52;12.90;;;3.17;;
9948;SDS011;5013;51.840;8.276;2023-03-14T15:37:21;10.57;;;2.43;;
9948;SDS011;5013;51.840;8.276;2023-03-14T15:39:47;9.73;;;2.37;;
9948;SDS011;5013;51.840;8.276;2023-03-14T15:42:13;11.17;;;2.47;;
9948;SDS011;5013;51.840;8.276;2023-03-14T15:44:39;12.67;;;2.77;;
9948;SDS011;5013;51.840;8.276;2023-03-14T15:47:04;9.50;;;2.60;;
9948;SDS011;5013;51.840;8.276;2023-03-14T15:49:31;10.40;;;2.40;;
9948;SDS011;5013;51.840;8.276;2023-03-14T15:51:57;14.63;;;2.70;;
9948;SDS011;5013;51.840;8.276;2023-03-14T15:54:22;10.80;;;2.20;;
9948;SDS011;5013;51.840;8.276;2023-03-14T15:56:49;12.77;;;1.80;;
9948;SDS011;5013;51.840;8.276;2023-03-14T15:59:14;4.97;;;1.70;;
9948;SDS011;5013;51.840;8.276;2023-03-14T16:01:40;7.97;;;2.10;;